Time;durP1;ratioP1;P1;durP2;ratioP2;P2;SDS_P1;SDS_P2;PMS_P1;PMS_P2;Temp;Humidity;BMP_temperature;BMP_pressure;BME280_temperature;BME280_humidity;BME280_pressure;Samples;Min_cycle;Max_cycle;Signal;HPM_P1;HPM_P2
2022/03/12 00:00:00;;;;;;;5.93;4.80;;;3.60;56.40;;;;;;5101376;28;20200;-41
2022/03/12 00:02:40;;;;;;;6.60;5.23;;;3.60;56.20;;;;;;5100347;28;20211;-41
2022/03/12 00:05:09;;;;;;;8.80;4.90;;;3.60;56.40;;;;;;5105650;28;20217;-43
2022/03/12 00:07:39;;;;;;;7.93;5.50;;;3.60;56.40;;;;;;5101019;28;20205;-42
2022/03/12 00:10:07;;;;;;;10.23;5.57;;;3.60;56.30;;;;;;5091094;28;20582;-40
2022/03/12 00:12:37;;;;;;;5.97;5.17;;;3.60;56.30;;;;;;5096649;28;20835;-40
2022/03/12 00:15:09;;;;;;;7.50;4.97;;;3.60;56.20;;;;;;5105477;28;20200;-42
2022/03/12 00:17:36;;;;;;;6.97;4.90;;;3.60;56.10;;;;;;5100090;28;20913;-41
2022/03/12 00:20:12;;;;;;;7.40;5.13;;;3.60;56.20;;;;;;5105101;28;20205;-40
2022/03/12 00:22:45;;;;;;;11.57;4.97;;;3.60;56.20;;;;;;5102334;28;20240;-43
2022/03/12 00:25:13;;;;;;;9.63;5.00;;;3.50;56.40;;;;;;5087619;28;20558;-41
2022/03/12 00:27:41;;;;;;;8.97;5.30;;;3.50;56.30;;;;;;5100838;28;20213;-40
2022/03/12 00:30:10;;;;;;;9.33;5.27;;;3.50;56.20;;;;;;5105370;28;20292;-40
2022/03/12 00:32:37;;;;;;;8.40;4.97;;;3.50;56.10;;;;;;5101320;28;20245;-44
2022/03/12 00:35:08;;;;;;;9.07;4.83;;;3.50;56.10;;;;;;5104911;28;20193;-41
2022/03/12 00:37:35;;;;;;;10.60;5.90;;;3.50;56.20;;;;;;5100614;28;20844;-42
2022/03/12 00:40:02;;;;;;;5.40;4.13;;;3.40;57.00;;;;;;5089424;28;20207;-42
2022/03/12 00:42:30;;;;;;;6.10;5.07;;;3.40;56.10;;;;;;5100791;28;20257;-43
2022/03/12 00:44:57;;;;;;;9.57;4.93;;;3.40;56.10;;;;;;5104975;28;20197;-44
2022/03/12 00:47:27;;;;;;;7.50;5.17;;;3.40;56.10;;;;;;5091047;28;20759;-44
2022/03/12 00:49:55;;;;;;;6.97;5.10;;;3.40;55.70;;;;;;5103870;28;20680;-40
2022/03/12 00:52:22;;;;;;;8.20;5.60;;;3.50;55.60;;;;;;5101946;28;20236;-40
2022/03/12 00:54:50;;;;;;;6.73;4.83;;;3.40;55.60;;;;;;5088712;28;20209;-43
2022/03/12 00:57:17;;;;;;;6.70;4.27;;;3.50;55.60;;;;;;5102609;28;20572;-42
2022/03/12 00:59:45;;;;;;;8.80;4.77;;;3.40;55.60;;;;;;5101909;28;20300;-43
2022/03/12 01:02:15;;;;;;;10.63;5.30;;;3.40;55.70;;;;;;5104189;28;20224;-45
2022/03/12 01:04:43;;;;;;;5.67;4.93;;;3.40;55.50;;;;;;5100133;28;20205;-40
2022/03/12 01:07:11;;;;;;;5.43;4.20;;;3.40;55.50;;;;;;5096303;28;20219;-43
2022/03/12 01:09:40;;;;;;;8.70;4.53;;;3.40;55.60;;;;;;5080628;28;21197;-43
2022/03/12 01:12:09;;;;;;;8.97;5.00;;;3.40;55.50;;;;;;5100542;28;20215;-42
2022/03/12 01:14:38;;;;;;;7.03;4.67;;;3.30;55.70;;;;;;5100030;28;21054;-42
2022/03/12 01:17:08;;;;;;;7.10;5.07;;;3.30;55.60;;;;;;5103800;28;20664;-42
2022/03/12 01:19:35;;;;;;;7.87;5.17;;;3.30;55.90;;;;;;5099854;28;20211;-42
2022/03/12 01:22:03;;;;;;;8.43;5.23;;;3.30;55.70;;;;;;5104212;28;20220;-39
2022/03/12 01:24:30;;;;;;;7.07;4.93;;;3.30;55.90;;;;;;5100388;28;20204;-40
2022/03/12 01:26:59;;;;;;;7.03;5.20;;;3.20;55.90;;;;;;5088594;28;20688;-40
2022/03/12 01:29:25;;;;;;;5.50;4.83;;;3.20;56.30;;;;;;5100809;28;20688;-42
2022/03/12 01:31:52;;;;;;;5.07;4.50;;;3.10;56.30;;;;;;5102707;28;20208;-41
2022/03/12 01:34:21;;;;;;;8.13;4.97;;;3.10;56.40;;;;;;5101799;28;20212;-39
2022/03/12 01:36:49;;;;;;;9.00;4.80;;;3.10;56.70;;;;;;5101845;28;20188;-42
2022/03/12 01:39:15;;;;;;;5.63;4.40;;;3.00;56.80;;;;;;5102545;28;20664;-39
2022/03/12 01:41:43;;;;;;;7.37;5.03;;;3.00;57.00;;;;;;5086350;28;20204;-42
2022/03/12 01:44:14;;;;;;;8.57;5.20;;;2.90;57.20;;;;;;5103398;28;20711;-43
2022/03/12 01:46:45;;;;;;;8.13;4.50;;;2.90;57.50;;;;;;5099782;28;20253;-43
2022/03/12 01:49:17;;;;;;;6.20;4.83;;;2.80;57.50;;;;;;5103378;28;20207;-42
2022/03/12 01:51:47;;;;;;;6.93;4.60;;;2.80;58.40;;;;;;5101645;28;20931;-46
2022/03/12 01:54:19;;;;;;;7.77;5.23;;;2.70;57.80;;;;;;5099413;28;20197;-46
2022/03/12 01:56:46;;;;;;;7.93;5.10;;;2.70;57.80;;;;;;5084100;28;20221;-45
2022/03/12 01:59:14;;;;;;;7.57;4.77;;;2.70;58.00;;;;;;5102862;28;20189;-44
2022/03/12 02:01:41;;;;;;;9.10;5.07;;;2.60;57.90;;;;;;5100767;28;20195;-42
2022/03/12 02:04:09;;;;;;;8.20;5.13;;;2.60;57.90;;;;;;5103237;28;20249;-44
2022/03/12 02:06:41;;;;;;;9.07;5.10;;;2.60;58.10;;;;;;5098613;28;20196;-46
2022/03/12 02:09:14;;;;;;;7.40;5.17;;;2.60;58.30;;;;;;5103454;28;20188;-42
2022/03/12 02:11:42;;;;;;;7.73;5.03;;;2.60;58.50;;;;;;5084369;28;20679;-41
2022/03/12 02:14:11;;;;;;;11.43;5.80;;;2.50;58.70;;;;;;5102584;28;20200;-41
2022/03/12 02:16:45;;;;;;;12.47;5.27;;;2.50;58.70;;;;;;5097945;28;20949;-45
2022/03/12 02:19:12;;;;;;;9.87;5.30;;;2.50;58.80;;;;;;5102508;28;20238;-44
2022/03/12 02:21:44;;;;;;;9.83;5.60;;;2.40;58.80;;;;;;5099892;28;20192;-43
2022/03/12 02:24:16;;;;;;;9.53;5.37;;;2.40;58.60;;;;;;5097099;28;20204;-45
2022/03/12 02:26:44;;;;;;;7.23;4.80;;;2.40;59.50;;;;;;5085110;28;20212;-42
2022/03/12 02:29:13;;;;;;;7.00;5.20;;;2.40;58.70;;;;;;5102774;28;20206;-45
2022/03/12 02:31:43;;;;;;;7.97;5.23;;;2.40;58.90;;;;;;5100281;28;20203;-42
2022/03/12 02:34:11;;;;;;;8.87;5.00;;;2.30;58.80;;;;;;5102655;28;20692;-42
2022/03/12 02:36:40;;;;;;;7.67;4.93;;;2.40;58.80;;;;;;5099051;28;20197;-43
2022/03/12 02:39:07;;;;;;;10.33;5.70;;;2.30;59.20;;;;;;5102818;28;20203;-42
2022/03/12 02:41:36;;;;;;;6.13;4.80;;;2.30;59.20;;;;;;5084693;28;20438;-43
2022/03/12 02:44:03;;;;;;;6.83;4.57;;;2.20;59.20;;;;;;5102875;28;20216;-43
2022/03/12 02:46:32;;;;;;;8.10;4.67;;;2.20;59.30;;;;;;5098569;28;20214;-45
2022/03/12 02:49:02;;;;;;;8.53;5.33;;;2.10;59.60;;;;;;5102847;28;20224;-46
2022/03/12 02:51:29;;;;;;;14.00;5.63;;;2.10;59.60;;;;;;5099465;28;20199;-44
2022/03/12 02:53:56;;;;;;;7.67;4.60;;;2.10;59.70;;;;;;5103297;28;20250;-43
2022/03/12 02:56:24;;;;;;;8.20;4.30;;;2.10;59.70;;;;;;5100034;28;20210;-46
2022/03/12 02:58:52;;;;;;;8.73;4.97;;;2.10;59.40;;;;;;5087119;28;20198;-43
2022/03/12 03:01:19;;;;;;;8.43;4.70;;;2.10;59.40;;;;;;5101002;28;20198;-44
2022/03/12 03:03:47;;;;;;;8.37;4.70;;;2.00;59.50;;;;;;5100552;28;20221;-43
2022/03/12 03:06:15;;;;;;;8.43;5.27;;;2.00;59.60;;;;;;5101624;28;20293;-42
2022/03/12 03:08:42;;;;;;;7.90;4.83;;;2.00;59.70;;;;;;5099838;28;20907;-40
2022/03/12 03:11:12;;;;;;;10.33;4.97;;;2.00;59.70;;;;;;5102598;28;20558;-40
2022/03/12 03:13:44;;;;;;;9.87;5.37;;;2.00;59.80;;;;;;5084570;28;20219;-42
2022/03/12 03:16:21;;;;;;;6.43;4.40;;;1.90;59.90;;;;;;5101510;28;20193;-41
2022/03/12 03:18:51;;;;;;;7.60;4.80;;;1.90;59.90;;;;;;5100737;28;20222;-40
2022/03/12 03:21:20;;;;;;;7.93;5.07;;;1.90;60.00;;;;;;5101341;28;20326;-41
2022/03/12 03:23:47;;;;;;;9.40;5.40;;;1.90;60.10;;;;;;5100799;28;20451;-43
2022/03/12 03:26:15;;;;;;;5.90;4.37;;;1.80;60.10;;;;;;5101509;28;20198;-42
2022/03/12 03:28:43;;;;;;;7.27;4.67;;;1.80;60.30;;;;;;5085366;28;20380;-41
2022/03/12 03:31:09;;;;;;;7.03;4.37;;;1.70;60.30;;;;;;5105477;28;20658;-44
2022/03/12 03:33:38;;;;;;;6.80;4.93;;;1.70;60.40;;;;;;5101835;28;20223;-43
2022/03/12 03:36:05;;;;;;;9.53;4.97;;;1.70;60.50;;;;;;5105780;28;20667;-41
2022/03/12 03:38:32;;;;;;;8.23;4.43;;;1.70;60.60;;;;;;5102364;28;20894;-41
2022/03/12 03:40:59;;;;;;;7.63;5.30;;;1.70;60.70;;;;;;5105838;28;20201;-43
2022/03/12 03:43:26;;;;;;;6.83;4.87;;;1.60;60.80;;;;;;5102852;28;20226;-42
2022/03/12 03:45:56;;;;;;;7.57;4.70;;;1.60;60.50;;;;;;5090047;28;20201;-42
2022/03/12 03:48:25;;;;;;;7.67;4.57;;;1.60;60.90;;;;;;5102756;28;20644;-46
2022/03/12 03:50:54;;;;;;;8.83;5.10;;;1.60;61.00;;;;;;5105233;28;20831;-42
2022/03/12 03:53:24;;;;;;;6.13;4.10;;;1.60;61.00;;;;;;5103276;28;20221;-40
2022/03/12 03:55:53;;;;;;;8.77;4.70;;;1.50;61.10;;;;;;5104286;28;20221;-42
2022/03/12 03:58:20;;;;;;;9.60;5.20;;;1.40;61.50;;;;;;5104318;28;20195;-41
2022/03/12 04:00:54;;;;;;;8.47;5.10;;;1.40;61.40;;;;;;5085234;28;20204;-40
2022/03/12 04:03:21;;;;;;;6.47;4.40;;;1.40;62.10;;;;;;5102672;28;20217;-42
2022/03/12 04:05:48;;;;;;;9.13;5.03;;;1.40;61.80;;;;;;5103509;28;20941;-42
2022/03/12 04:08:16;;;;;;;7.53;4.67;;;1.40;61.60;;;;;;5104117;28;20690;-41
2022/03/12 04:10:44;;;;;;;7.17;4.87;;;1.40;61.80;;;;;;5103038;28;20191;-40
2022/03/12 04:13:13;;;;;;;9.03;4.80;;;1.40;61.50;;;;;;5105344;28;20228;-43
2022/03/12 04:15:40;;;;;;;7.27;4.53;;;1.40;61.60;;;;;;5086922;28;20298;-41
2022/03/12 04:18:08;;;;;;;7.53;5.10;;;1.40;62.40;;;;;;5104016;28;20202;-40
2022/03/12 04:20:37;;;;;;;6.87;4.73;;;1.30;61.50;;;;;;5101028;28;20982;-39
2022/03/12 04:23:06;;;;;;;6.60;4.97;;;1.30;61.50;;;;;;5102186;28;20221;-39
2022/03/12 04:25:35;;;;;;;6.43;4.53;;;1.30;61.50;;;;;;5100866;28;20196;-39
2022/03/12 04:28:03;;;;;;;6.60;5.30;;;1.30;61.40;;;;;;5104112;28;20206;-40
2022/03/12 04:30:29;;;;;;;10.43;4.27;;;1.30;61.50;;;;;;5087877;28;20201;-41
2022/03/12 04:32:56;;;;;;;8.40;4.57;;;1.30;61.60;;;;;;5104848;28;20323;-39
2022/03/12 04:35:26;;;;;;;6.03;4.33;;;1.30;61.50;;;;;;5102575;28;20286;-41
2022/03/12 04:37:53;;;;;;;6.90;4.53;;;1.30;61.40;;;;;;5103566;28;20198;-41
2022/03/12 04:40:23;;;;;;;6.90;4.77;;;1.30;61.50;;;;;;5101699;28;20190;-45
2022/03/12 04:42:52;;;;;;;7.90;4.47;;;1.20;61.80;;;;;;5103683;28;20202;-44
2022/03/12 04:45:21;;;;;;;10.73;4.73;;;1.20;62.00;;;;;;5095005;28;20280;-43
2022/03/12 04:47:49;;;;;;;6.40;3.83;;;1.20;62.10;;;;;;5096082;28;20258;-42
2022/03/12 04:50:18;;;;;;;6.33;4.70;;;1.10;62.10;;;;;;5103820;28;20609;-46
2022/03/12 04:52:48;;;;;;;8.60;4.63;;;1.20;62.10;;;;;;5102491;27;20211;-42
2022/03/12 04:55:19;;;;;;;6.43;4.63;;;1.10;62.30;;;;;;5103548;28;20215;-44
2022/03/12 04:57:47;;;;;;;7.33;4.13;;;1.10;62.20;;;;;;5101724;28;20197;-43
2022/03/12 05:00:19;;;;;;;6.50;4.50;;;1.10;62.40;;;;;;5104045;28;20205;-44
2022/03/12 05:02:47;;;;;;;6.83;5.00;;;1.10;62.40;;;;;;5087491;28;20975;-42
2022/03/12 05:05:16;;;;;;;10.20;5.23;;;1.00;62.60;;;;;;5103213;28;20229;-41
2022/03/12 05:07:44;;;;;;;7.30;4.60;;;1.00;62.50;;;;;;5100988;28;20247;-41
2022/03/12 05:10:12;;;;;;;7.50;4.50;;;1.00;62.60;;;;;;5104880;28;20251;-42
2022/03/12 05:12:40;;;;;;;8.60;4.70;;;1.00;63.00;;;;;;5100856;28;21055;-41
2022/03/12 05:15:13;;;;;;;7.50;5.20;;;1.00;63.00;;;;;;5104481;28;20205;-41
2022/03/12 05:17:41;;;;;;;8.27;5.30;;;1.00;62.80;;;;;;5084232;28;24179;-41
2022/03/12 05:20:10;;;;;;;6.90;4.50;;;1.00;62.80;;;;;;5103988;28;20202;-44
2022/03/12 05:22:37;;;;;;;8.33;4.63;;;0.90;62.80;;;;;;5100678;28;20217;-44
2022/03/12 05:25:04;;;;;;;7.97;5.00;;;0.90;63.00;;;;;;5104268;28;20248;-43
2022/03/12 05:27:32;;;;;;;5.73;4.30;;;0.90;62.90;;;;;;5099083;28;20295;-40
2022/03/12 05:30:00;;;;;;;8.70;4.97;;;0.90;63.00;;;;;;5104186;28;20221;-41
2022/03/12 05:32:26;;;;;;;7.37;5.10;;;0.90;63.10;;;;;;5100123;28;20278;-43
2022/03/12 05:34:54;;;;;;;8.70;5.10;;;0.90;63.20;;;;;;5087956;28;20204;-43
2022/03/12 05:37:22;;;;;;;8.47;4.63;;;0.90;63.20;;;;;;5100469;28;20287;-41
2022/03/12 05:39:51;;;;;;;8.60;4.50;;;0.80;63.30;;;;;;5102404;28;20185;-44
2022/03/12 05:42:20;;;;;;;7.63;4.47;;;0.80;63.50;;;;;;5102567;28;20253;-43
2022/03/12 05:44:47;;;;;;;6.33;4.20;;;0.80;63.50;;;;;;5101940;28;20191;-41
2022/03/12 05:47:14;;;;;;;6.73;4.00;;;0.80;63.40;;;;;;5100579;28;20190;-41
2022/03/12 05:49:41;;;;;;;7.50;4.97;;;0.80;63.60;;;;;;5086441;28;20224;-42
2022/03/12 05:52:10;;;;;;;7.60;4.80;;;0.70;63.70;;;;;;5102951;28;20209;-41
2022/03/12 05:54:38;;;;;;;8.50;4.73;;;0.70;63.50;;;;;;5093217;28;20201;-42
2022/03/12 05:57:05;;;;;;;6.87;4.87;;;0.70;63.70;;;;;;5102751;28;20673;-42
2022/03/12 05:59:32;;;;;;;5.73;4.57;;;0.70;63.80;;;;;;5091397;28;20209;-42
2022/03/12 06:01:59;;;;;;;6.47;4.60;;;0.70;63.80;;;;;;5102780;28;20705;-44
2022/03/12 06:04:27;;;;;;;6.57;4.43;;;0.70;63.80;;;;;;5085633;28;20209;-46
2022/03/12 06:06:53;;;;;;;6.87;4.53;;;0.70;64.00;;;;;;5102111;28;20204;-44
2022/03/12 06:09:22;;;;;;;6.97;4.90;;;0.70;64.20;;;;;;5100638;28;20209;-46
2022/03/12 06:11:53;;;;;;;8.60;5.07;;;0.70;64.10;;;;;;5100756;28;20831;-43
2022/03/12 06:14:21;;;;;;;6.27;4.30;;;0.70;64.10;;;;;;5091055;28;20209;-45
2022/03/12 06:16:48;;;;;;;8.70;5.10;;;0.70;64.10;;;;;;5099221;28;20753;-47
2022/03/12 06:19:19;;;;;;;6.13;5.00;;;0.70;63.90;;;;;;5084638;28;20220;-48
2022/03/12 06:21:46;;;;;;;6.97;4.73;;;0.80;64.80;;;;;;5097659;28;20197;-43
2022/03/12 06:24:14;;;;;;;6.93;4.67;;;0.80;63.90;;;;;;5100544;28;20557;-45
2022/03/12 06:26:43;;;;;;;7.03;4.93;;;0.80;63.50;;;;;;5097259;28;20292;-44
2022/03/12 06:29:13;;;;;;;8.87;5.00;;;0.90;63.70;;;;;;5100276;28;20209;-43
2022/03/12 06:32:03;;;;;;;5.90;4.37;;;0.90;63.70;;;;;;5100452;28;20255;-43
2022/03/12 06:34:30;;;;;;;9.63;4.83;;;0.90;63.70;;;;;;5083197;28;20205;-44
2022/03/12 06:36:57;;;;;;;5.57;4.20;;;0.90;63.50;;;;;;5098322;28;20279;-43
2022/03/12 06:39:23;;;;;;;9.07;4.63;;;1.00;63.70;;;;;;5097425;28;20204;-44
2022/03/12 06:41:53;;;;;;;6.93;4.80;;;1.00;63.20;;;;;;5099454;28;20205;-43
2022/03/12 06:44:23;;;;;;;7.17;4.93;;;1.10;63.20;;;;;;5098924;28;20271;-43
2022/03/12 06:46:50;;;;;;;6.67;4.70;;;1.20;63.20;;;;;;5099336;28;20193;-43
2022/03/12 06:49:17;;;;;;;6.00;4.13;;;1.20;62.90;;;;;;5093362;28;20304;-46
2022/03/12 06:51:44;;;;;;;7.13;4.80;;;1.20;62.90;;;;;;5090079;28;20185;-44
2022/03/12 06:54:10;;;;;;;9.53;4.33;;;1.30;62.10;;;;;;5100227;28;20193;-43
2022/03/12 06:56:39;;;;;;;7.37;4.30;;;1.40;62.30;;;;;;5096562;28;20294;-45
2022/03/12 06:59:07;;;;;;;7.30;4.47;;;1.40;62.10;;;;;;5100814;28;20206;-43
2022/03/12 07:01:56;;;;;;;5.23;4.17;;;1.50;61.50;;;;;;5099480;28;20327;-42
2022/03/12 07:04:23;;;;;;;7.20;4.40;;;1.60;61.50;;;;;;5098323;28;20203;-44
2022/03/12 07:06:50;;;;;;;7.77;4.20;;;1.60;61.00;;;;;;5080041;28;20209;-43
2022/03/12 07:09:17;;;;;;;6.80;4.37;;;1.70;60.70;;;;;;5103022;28;20214;-48
2022/03/12 07:11:47;;;;;;;5.07;3.93;;;1.80;60.60;;;;;;5098135;28;20327;-44
2022/03/12 07:14:15;;;;;;;6.07;4.27;;;1.90;60.20;;;;;;5098823;28;20200;-46
2022/03/12 07:16:43;;;;;;;6.80;4.40;;;2.00;59.70;;;;;;5095676;28;20199;-49
2022/03/12 07:19:10;;;;;;;7.57;4.40;;;2.10;59.90;;;;;;5099844;28;20251;-44
2022/03/12 07:21:37;;;;;;;7.87;4.53;;;2.20;59.60;;;;;;5086216;28;20189;-46
2022/03/12 07:24:04;;;;;;;5.57;3.83;;;2.30;59.00;;;;;;5101290;28;20214;-46
2022/03/12 07:26:31;;;;;;;6.17;4.20;;;2.40;58.50;;;;;;5100921;28;20843;-44
2022/03/12 07:28:59;;;;;;;6.37;4.63;;;2.50;57.70;;;;;;5100955;28;20570;-45
2022/03/12 07:31:27;;;;;;;6.77;4.20;;;2.60;57.50;;;;;;5102985;28;20208;-46
2022/03/12 07:33:54;;;;;;;4.40;3.67;;;2.70;56.70;;;;;;5107105;27;20318;-42
2022/03/12 07:36:23;;;;;;;5.43;3.40;;;2.90;56.70;;;;;;5084233;27;20259;-47
2022/03/12 07:38:51;;;;;;;8.13;3.87;;;3.00;56.00;;;;;;5104748;28;20186;-44
2022/03/12 07:41:18;;;;;;;6.90;3.77;;;3.10;55.20;;;;;;5104798;28;20195;-45
2022/03/12 07:43:45;;;;;;;5.10;3.47;;;3.10;54.60;;;;;;5103072;28;20363;-43
2022/03/12 07:46:11;;;;;;;4.13;3.43;;;3.20;54.80;;;;;;5104561;28;20195;-43
2022/03/12 07:48:39;;;;;;;6.87;4.27;;;3.30;54.20;;;;;;5092775;28;20195;-43
2022/03/12 07:51:07;;;;;;;5.30;4.10;;;3.40;54.20;;;;;;5087248;28;20662;-48
2022/03/12 07:53:33;;;;;;;7.23;3.90;;;3.50;54.00;;;;;;5102050;28;20216;-43
2022/03/12 07:56:00;;;;;;;6.17;3.80;;;3.60;53.70;;;;;;5102149;28;20203;-45
2022/03/12 07:58:28;;;;;;;5.17;3.50;;;3.70;54.70;;;;;;5104397;28;20253;-46
2022/03/12 08:00:59;;;;;;;4.90;3.90;;;3.80;53.60;;;;;;5102129;28;20245;-43
2022/03/12 08:03:26;;;;;;;6.67;3.90;;;3.90;53.10;;;;;;5103234;28;20958;-46
2022/03/12 08:05:55;;;;;;;9.77;6.07;;;4.00;52.80;;;;;;5104404;28;20596;-45
2022/03/12 08:08:22;;;;;;;6.57;3.57;;;4.10;53.10;;;;;;5088924;28;20235;-46
2022/03/12 08:13:35;;;;;;;4.97;4.33;;;4.40;52.50;;;;;;5105367;28;20254;-45
2022/03/12 08:16:02;;;;;;;6.40;4.30;;;4.60;52.40;;;;;;5101696;28;20199;-46
2022/03/12 08:18:29;;;;;;;5.93;3.73;;;4.70;51.80;;;;;;5102279;28;20295;-44
2022/03/12 08:20:57;;;;;;;5.07;3.63;;;4.80;52.60;;;;;;5103577;28;20652;-45
2022/03/12 08:23:24;;;;;;;5.43;3.90;;;5.00;51.80;;;;;;5080342;28;20216;-46
2022/03/12 08:25:50;;;;;;;4.60;3.63;;;5.10;51.90;;;;;;5097541;28;20212;-46
2022/03/12 08:28:17;;;;;;;5.17;3.67;;;5.20;51.20;;;;;;5095890;28;20201;-46
2022/03/12 08:30:46;;;;;;;5.50;4.40;;;5.30;51.30;;;;;;5097977;28;20237;-49
2022/03/12 08:33:14;;;;;;;6.07;3.67;;;5.40;51.40;;;;;;5102163;28;20364;-46
2022/03/12 08:35:41;;;;;;;5.73;3.87;;;5.50;51.10;;;;;;5105780;27;20216;-41
2022/03/12 08:38:09;;;;;;;5.67;4.27;;;5.60;50.70;;;;;;5086179;28;20929;-45
2022/03/12 08:40:36;;;;;;;7.83;4.47;;;5.60;50.10;;;;;;5104973;28;20185;-44
2022/03/12 08:43:03;;;;;;;3.50;3.07;;;5.60;49.70;;;;;;5098843;28;20213;-44
2022/03/12 08:45:30;;;;;;;5.10;3.67;;;5.80;50.70;;;;;;5092478;28;20204;-49
2022/03/12 08:47:57;;;;;;;6.17;3.87;;;5.90;49.40;;;;;;5100634;28;20638;-44
2022/03/12 08:50:25;;;;;;;3.93;3.53;;;5.90;49.10;;;;;;5104467;28;20225;-44
2022/03/12 08:52:52;;;;;;;6.30;3.43;;;5.90;49.40;;;;;;5101793;28;20255;-44
2022/03/12 08:55:23;;;;;;;4.37;3.60;;;5.90;49.50;;;;;;5088174;28;20197;-46
2022/03/12 08:57:51;;;;;;;4.70;3.50;;;5.90;49.20;;;;;;5102271;28;20283;-44
2022/03/12 09:00:19;;;;;;;7.07;3.90;;;5.80;49.50;;;;;;5096755;28;20202;-44
2022/03/12 09:02:47;;;;;;;4.83;3.63;;;5.70;49.70;;;;;;5102220;28;20221;-45
2022/03/12 09:05:15;;;;;;;6.60;3.63;;;5.70;49.60;;;;;;5101525;28;20984;-42
2022/03/12 09:07:43;;;;;;;4.77;3.30;;;5.60;49.90;;;;;;5104424;28;20229;-45
2022/03/12 09:10:12;;;;;;;3.83;3.47;;;5.60;50.10;;;;;;5086141;28;20296;-45
2022/03/12 09:12:42;;;;;;;4.77;3.50;;;5.60;50.00;;;;;;5101655;28;20302;-43
2022/03/12 09:15:10;;;;;;;5.17;3.70;;;5.60;49.80;;;;;;5085159;27;20212;-43
2022/03/12 09:17:37;;;;;;;6.07;3.60;;;5.50;49.90;;;;;;5101539;28;20554;-45
2022/03/12 09:20:06;;;;;;;5.23;3.97;;;5.50;49.60;;;;;;5095441;28;20809;-44
2022/03/12 09:22:34;;;;;;;4.70;3.63;;;5.40;49.50;;;;;;5103586;28;20201;-43
2022/03/12 09:25:01;;;;;;;4.63;3.50;;;5.40;49.60;;;;;;5084784;28;20189;-46
2022/03/12 09:27:28;;;;;;;5.03;4.00;;;5.50;49.70;;;;;;5101487;28;20680;-42
2022/03/12 09:29:56;;;;;;;4.00;3.60;;;5.50;50.10;;;;;;5100570;28;20208;-44
2022/03/12 09:32:24;;;;;;;7.83;5.30;;;5.50;50.40;;;;;;5096570;28;20229;-41
2022/03/12 09:34:52;;;;;;;13.57;6.70;;;5.50;50.40;;;;;;5101582;28;20201;-47
2022/03/12 09:37:19;;;;;;;4.83;4.13;;;5.60;50.10;;;;;;5096901;27;20201;-44
2022/03/12 09:39:47;;;;;;;5.60;3.33;;;5.60;49.70;;;;;;5100385;28;20556;-48
2022/03/12 09:42:14;;;;;;;4.03;3.57;;;5.70;50.40;;;;;;5086719;28;20825;-42
2022/03/12 09:44:41;;;;;;;4.57;3.43;;;5.80;50.00;;;;;;5094376;28;20266;-46
2022/03/12 09:47:09;;;;;;;4.73;3.90;;;5.90;49.50;;;;;;5091795;28;20331;-44
2022/03/12 09:49:36;;;;;;;4.80;3.83;;;6.00;50.30;;;;;;5103537;28;20705;-45
2022/03/12 09:52:05;;;;;;;4.50;3.80;;;6.10;49.70;;;;;;5092007;28;20240;-44
2022/03/12 09:54:32;;;;;;;4.20;3.73;;;6.20;49.90;;;;;;5103279;27;20232;-44
2022/03/12 09:56:59;;;;;;;6.60;3.73;;;6.30;49.20;;;;;;5085026;28;20212;-45
2022/03/12 09:59:26;;;;;;;4.97;3.83;;;6.40;48.70;;;;;;5103567;28;20193;-42
2022/03/12 10:01:54;;;;;;;5.67;3.60;;;6.50;49.30;;;;;;5100444;28;20224;-44
2022/03/12 10:04:23;;;;;;;5.03;3.80;;;6.60;49.00;;;;;;5094910;28;20209;-42
2022/03/12 10:06:50;;;;;;;6.17;3.80;;;6.80;49.00;;;;;;5093525;28;20197;-46
2022/03/12 10:09:16;;;;;;;5.23;3.90;;;6.80;48.40;;;;;;5100880;28;20962;-46
2022/03/12 10:11:44;;;;;;;5.13;3.50;;;6.90;48.70;;;;;;5103083;28;20204;-43
2022/03/12 10:14:11;;;;;;;4.93;3.93;;;6.90;49.20;;;;;;5088847;28;20190;-42
2022/03/12 10:16:38;;;;;;;5.13;4.17;;;6.90;49.00;;;;;;5101799;27;20202;-43
2022/03/12 10:19:06;;;;;;;6.50;3.80;;;7.00;47.70;;;;;;5093426;28;20193;-43
2022/03/12 10:21:42;;;;;;;5.60;4.17;;;7.10;48.40;;;;;;5103375;28;20197;-47
2022/03/12 10:24:09;;;;;;;4.27;3.63;;;7.20;47.40;;;;;;5092140;28;20975;-44
2022/03/12 10:26:35;;;;;;;4.67;3.90;;;7.30;48.00;;;;;;5102079;28;20193;-43
2022/03/12 10:29:02;;;;;;;4.60;3.77;;;7.50;47.90;;;;;;5082713;28;20356;-45
2022/03/12 10:31:29;;;;;;;5.53;4.00;;;7.50;48.40;;;;;;5102565;28;20221;-45
2022/03/12 10:34:14;;;;;;;4.10;3.60;;;7.70;47.80;;;;;;5095374;28;20270;-47
2022/03/12 10:36:43;;;;;;;4.57;3.50;;;7.80;46.80;;;;;;5097811;28;20193;-45
2022/03/12 10:39:10;;;;;;;5.73;3.87;;;7.90;46.60;;;;;;5093362;28;20272;-43
2022/03/12 10:41:37;;;;;;;5.50;3.93;;;7.90;47.40;;;;;;5101876;28;20194;-45
2022/03/12 10:44:05;;;;;;;4.43;3.90;;;8.10;47.80;;;;;;5081221;27;20332;-39
2022/03/12 10:46:35;;;;;;;5.17;3.77;;;8.30;47.40;;;;;;5113215;27;20195;-38
2022/03/12 10:49:03;;;;;;;5.53;3.63;;;8.40;46.20;;;;;;5099320;27;20585;-67
2022/03/12 10:51:32;;;;;;;8.27;3.97;;;8.40;46.40;;;;;;5100365;27;20217;-67
2022/03/12 10:54:04;;;;;;;5.00;3.73;;;8.40;46.20;;;;;;5095241;28;20235;-66
2022/03/12 10:56:42;;;;;;;5.03;4.10;;;8.50;46.10;;;;;;5106045;28;20696;-68
2022/03/12 10:59:15;;;;;;;5.67;3.60;;;8.60;45.60;;;;;;5081916;28;20237;-66
2022/03/12 11:01:49;;;;;;;5.10;4.20;;;8.70;45.00;;;;;;5105960;28;20633;-68
2022/03/12 11:04:22;;;;;;;9.93;6.27;;;8.70;45.10;;;;;;5104145;28;20214;-68
2022/03/12 11:06:52;;;;;;;4.70;4.10;;;8.80;45.40;;;;;;5085882;28;20208;-66
2022/03/12 11:09:33;;;;;;;8.63;3.93;;;8.80;44.70;;;;;;5083854;28;20197;-66
2022/03/12 11:12:00;;;;;;;4.83;4.33;;;8.90;45.70;;;;;;5101369;28;20235;-69
2022/03/12 11:14:29;;;;;;;6.37;4.07;;;9.00;45.60;;;;;;5099654;28;20205;-64
2022/03/12 11:16:56;;;;;;;4.87;3.60;;;9.10;44.70;;;;;;5087140;28;20194;-68
2022/03/12 11:19:37;;;;;;;4.73;4.03;;;9.10;44.70;;;;;;5105713;28;20267;-66
2022/03/12 11:22:10;;;;;;;4.97;3.90;;;9.10;45.30;;;;;;5095674;28;20193;-67
2022/03/12 11:24:48;;;;;;;4.20;3.80;;;9.20;45.00;;;;;;5099315;28;20338;-67
2022/03/12 11:27:27;;;;;;;5.20;4.50;;;9.20;45.40;;;;;;5097724;28;20224;-67
2022/03/12 11:29:59;;;;;;;5.07;4.23;;;9.30;44.30;;;;;;5089306;28;20283;-67
2022/03/12 11:32:27;;;;;;;6.17;3.77;;;9.40;45.00;;;;;;5101024;28;20252;-67
2022/03/12 11:35:04;;;;;;;7.60;4.63;;;9.40;44.50;;;;;;5101390;28;20229;-67
2022/03/12 11:37:34;;;;;;;6.03;3.83;;;9.50;44.80;;;;;;5096399;28;20197;-67
2022/03/12 11:40:03;;;;;;;9.97;4.37;;;9.50;45.20;;;;;;5093481;28;20878;-67
2022/03/12 11:42:34;;;;;;;6.30;4.07;;;9.60;45.60;;;;;;5103627;28;20620;-67
2022/03/12 11:45:04;;;;;;;5.00;4.20;;;9.70;45.60;;;;;;5083646;28;21828;-67
2022/03/12 11:47:33;;;;;;;4.37;3.97;;;9.70;44.90;;;;;;5100046;28;20227;-67
2022/03/12 11:50:01;;;;;;;4.00;3.60;;;9.80;45.10;;;;;;5099965;28;20188;-67
2022/03/12 11:52:29;;;;;;;5.83;4.70;;;9.90;44.80;;;;;;5096402;28;20287;-67
2022/03/12 11:54:56;;;;;;;5.67;4.33;;;10.10;44.50;;;;;;5095581;27;20198;-67
2022/03/12 11:57:27;;;;;;;6.37;3.87;;;10.20;44.40;;;;;;5104663;28;20193;-67
2022/03/12 11:59:55;;;;;;;5.63;4.37;;;10.20;44.20;;;;;;5100810;28;20612;-67
2022/03/12 12:02:29;;;;;;;4.43;4.03;;;10.20;44.60;;;;;;5090389;28;20818;-67
2022/03/12 12:04:58;;;;;;;8.27;4.13;;;10.30;44.20;;;;;;5093382;28;20197;-67
2022/03/12 12:07:26;;;;;;;5.93;4.27;;;10.40;44.50;;;;;;5103348;28;20198;-69
2022/03/12 12:09:52;;;;;;;6.63;4.20;;;10.40;44.10;;;;;;5093420;28;20683;-69
2022/03/12 12:12:19;;;;;;;4.67;3.73;;;10.50;44.40;;;;;;5097482;28;20213;-66
2022/03/12 12:14:47;;;;;;;6.60;4.20;;;10.50;45.00;;;;;;5096719;28;20202;-66
2022/03/12 12:17:14;;;;;;;8.40;4.43;;;10.60;45.30;;;;;;5087317;28;20911;-66
2022/03/12 12:19:41;;;;;;;4.83;4.30;;;10.70;44.80;;;;;;5103046;28;20205;-67
2022/03/12 12:22:08;;;;;;;5.37;4.13;;;10.70;44.40;;;;;;5099829;28;20208;-68
2022/03/12 12:24:39;;;;;;;5.87;4.37;;;10.70;44.50;;;;;;5090211;28;20280;-68
2022/03/12 12:27:06;;;;;;;4.83;4.17;;;10.70;43.70;;;;;;5092006;28;20213;-68
2022/03/12 12:29:54;;;;;;;9.93;4.70;;;10.70;44.10;;;;;;5103737;28;20234;-49
2022/03/12 12:32:22;;;;;;;5.00;4.50;;;10.80;44.60;;;;;;5087410;28;20221;-47
2022/03/12 12:35:13;;;;;;;4.40;4.00;;;10.90;45.00;;;;;;5101227;28;20197;-50
2022/03/12 12:37:57;;;;;;;4.80;4.30;;;10.90;44.90;;;;;;5096011;28;20204;-50
2022/03/12 12:40:29;;;;;;;5.93;3.90;;;11.00;43.20;;;;;;5092489;28;20213;-47
2022/03/12 12:42:58;;;;;;;5.53;4.23;;;11.00;44.20;;;;;;5093923;28;20274;-48
2022/03/12 12:45:28;;;;;;;4.97;4.17;;;11.00;44.40;;;;;;5102819;28;20193;-46
2022/03/12 12:48:10;;;;;;;5.00;4.50;;;11.10;44.40;;;;;;5081368;28;20205;-50
2022/03/12 12:50:37;;;;;;;6.13;4.63;;;11.10;43.10;;;;;;5104414;28;20225;-47
2022/03/12 12:53:29;;;;;;;8.00;4.27;;;11.20;43.50;;;;;;5101264;28;20208;-49
2022/03/12 12:56:18;;;;;;;5.03;4.50;;;11.30;42.50;;;;;;5086957;28;20213;-52
2022/03/12 12:59:13;;;;;;;5.27;4.77;;;11.40;44.10;;;;;;5094842;28;20614;-53
2022/03/12 13:01:49;;;;;;;4.83;4.30;;;11.40;43.00;;;;;;5098216;28;20198;-52
2022/03/12 13:04:19;;;;;;;5.53;4.83;;;11.50;44.30;;;;;;5087521;28;20205;-43
2022/03/12 13:06:49;;;;;;;8.00;4.53;;;11.60;44.60;;;;;;5099334;28;20247;-41